createdAt,value
2017-09-30T00:04:36.428Z,16.00
2017-09-30T00:09:39.391Z,16.03
2017-09-30T00:14:43.323Z,15.23
2017-09-30T00:19:47.591Z,16.00
2017-09-30T00:24:50.577Z,16.57
2017-09-30T00:29:54.489Z,17.90
2017-09-30T00:34:57.255Z,19.60
2017-09-30T00:40:01.313Z,19.93
2017-09-30T00:45:08.111Z,21.80
2017-09-30T00:50:11.430Z,23.43
2017-09-30T00:55:24.612Z,25.00
2017-09-30T01:00:31.865Z,23.93
2017-09-30T01:05:39.681Z,26.67
2017-09-30T01:10:48.598Z,27.57
2017-09-30T01:15:53.647Z,29.73
2017-09-30T01:21:02.317Z,31.07
2017-09-30T01:26:05.747Z,30.33
2017-09-30T01:31:09.365Z,32.83
2017-09-30T01:36:12.575Z,31.30
2017-09-30T01:41:15.776Z,31.10
2017-09-30T01:46:19.793Z,31.97
2017-09-30T01:51:24.053Z,32.13
2017-09-30T01:56:28.851Z,33.77
2017-09-30T02:01:32.032Z,35.17
2017-09-30T02:06:34.500Z,30.80
2017-09-30T02:11:44.045Z,33.87
2017-09-30T02:16:46.765Z,33.80
2017-09-30T02:21:49.295Z,32.03
2017-09-30T02:26:52.005Z,33.57
2017-09-30T02:31:54.710Z,32.40
2017-09-30T02:36:57.308Z,32.67
2017-09-30T02:41:59.869Z,33.23
2017-09-30T02:47:02.481Z,37.80
2017-09-30T02:52:05.915Z,36.93
2017-09-30T02:57:08.483Z,35.93
2017-09-30T03:02:11.058Z,35.13
2017-09-30T03:07:13.312Z,35.23
2017-09-30T03:12:15.992Z,36.00
2017-09-30T03:17:18.639Z,36.90
2017-09-30T03:22:21.098Z,36.50
2017-09-30T03:27:23.693Z,35.30
2017-09-30T03:32:25.801Z,33.80
2017-09-30T03:37:30.982Z,32.37
2017-09-30T03:42:34.721Z,36.07
2017-09-30T03:47:37.400Z,35.00
2017-09-30T03:52:40.602Z,34.30
2017-09-30T03:57:42.912Z,33.33
2017-09-30T04:02:45.153Z,30.07
2017-09-30T04:07:47.710Z,26.13
2017-09-30T04:12:50.049Z,31.63
2017-09-30T04:17:52.172Z,34.83
2017-09-30T04:22:54.848Z,36.90
2017-09-30T04:27:57.454Z,40.90
2017-09-30T04:32:59.740Z,43.80
2017-09-30T04:38:02.826Z,44.03
2017-09-30T04:43:05.995Z,45.90
2017-09-30T04:48:08.775Z,47.23
2017-09-30T04:53:11.261Z,47.60
2017-09-30T04:58:13.340Z,47.17
2017-09-30T05:03:15.847Z,45.60
2017-09-30T05:08:18.348Z,45.43
2017-09-30T05:13:20.646Z,46.80
2017-09-30T05:18:23.001Z,43.13
2017-09-30T05:23:25.763Z,44.30
2017-09-30T05:28:29.164Z,43.63
2017-09-30T05:33:37.433Z,46.57
2017-09-30T05:38:40.354Z,47.00
2017-09-30T05:43:42.968Z,47.07
2017-09-30T05:48:46.144Z,43.00
2017-09-30T05:53:49.519Z,41.77
2017-09-30T05:58:52.723Z,43.50
2017-09-30T06:04:02.236Z,41.27
2017-09-30T06:09:04.345Z,40.40
2017-09-30T06:14:06.947Z,37.93
2017-09-30T06:19:10.287Z,36.80
2017-09-30T06:24:12.963Z,31.87
2017-09-30T06:29:15.366Z,29.60
2017-09-30T06:34:18.053Z,28.50
2017-09-30T06:39:20.678Z,26.27
2017-09-30T06:44:24.271Z,26.27
2017-09-30T06:49:26.923Z,24.47
2017-09-30T06:54:31.797Z,27.90
2017-09-30T06:59:34.885Z,29.07
2017-09-30T07:04:39.731Z,25.83
2017-09-30T07:09:46.838Z,23.47
2017-09-30T07:14:51.093Z,22.17
2017-09-30T07:19:57.357Z,22.97
2017-09-30T07:25:01.667Z,22.50
2017-09-30T07:30:04.340Z,20.30
2017-09-30T07:35:08.556Z,19.13
2017-09-30T07:40:10.797Z,19.77
2017-09-30T07:45:13.070Z,16.40
2017-09-30T07:50:15.572Z,16.50
2017-09-30T07:55:18.654Z,18.20
2017-09-30T08:00:21.333Z,19.13
2017-09-30T08:05:23.707Z,19.70
2017-09-30T08:10:26.394Z,19.47
2017-09-30T08:15:29.059Z,20.03
2017-09-30T08:20:31.562Z,19.70
2017-09-30T08:25:34.196Z,21.00
2017-09-30T08:30:36.375Z,23.80
2017-09-30T08:35:39.047Z,22.53
2017-09-30T08:40:41.666Z,23.77
2017-09-30T08:45:45.143Z,22.40
2017-09-30T08:50:47.838Z,20.53
2017-09-30T08:55:51.423Z,20.70
2017-09-30T09:00:54.482Z,21.10
2017-09-30T09:05:58.626Z,22.00
2017-09-30T09:11:02.271Z,21.77
2017-09-30T09:16:06.158Z,22.13
2017-09-30T09:21:09.939Z,23.50
2017-09-30T09:26:13.865Z,24.10
2017-09-30T09:31:17.218Z,23.90
2017-09-30T09:36:21.340Z,23.27
2017-09-30T09:41:25.045Z,21.20
2017-09-30T09:46:28.943Z,22.67
2017-09-30T09:51:32.228Z,22.63
2017-09-30T09:56:35.512Z,23.47
2017-09-30T10:01:37.700Z,22.20
2017-09-30T10:06:42.295Z,21.37
2017-09-30T10:11:45.987Z,21.70
2017-09-30T10:16:52.225Z,21.80
2017-09-30T10:22:00.074Z,19.80
2017-09-30T10:27:04.246Z,22.93
2017-09-30T10:32:07.219Z,19.47
2017-09-30T10:37:10.631Z,21.10
2017-09-30T10:42:13.898Z,19.60
2017-09-30T10:47:16.041Z,20.77
2017-09-30T10:52:18.936Z,18.90
2017-09-30T10:57:21.716Z,17.63
2017-09-30T11:02:24.414Z,15.53
2017-09-30T11:07:27.025Z,17.60
2017-09-30T11:12:29.699Z,17.57
2017-09-30T11:17:32.841Z,15.30
2017-09-30T11:22:35.501Z,15.10
2017-09-30T11:27:37.944Z,14.27
2017-09-30T11:32:40.536Z,14.10
2017-09-30T11:37:44.056Z,16.13
2017-09-30T11:42:47.506Z,16.07
2017-09-30T11:47:50.221Z,15.13
2017-09-30T11:52:52.320Z,16.80
2017-09-30T11:57:55.078Z,16.13
2017-09-30T12:02:59.613Z,16.93
2017-09-30T12:08:04.251Z,15.67
2017-09-30T12:13:06.751Z,12.10
2017-09-30T12:18:09.419Z,14.07
2017-09-30T12:23:12.017Z,15.10
2017-09-30T12:28:14.739Z,14.73
2017-09-30T12:33:19.964Z,13.87
2017-09-30T12:38:23.519Z,14.87
2017-09-30T12:43:26.252Z,16.93
2017-09-30T12:48:28.724Z,15.10
2017-09-30T12:53:31.356Z,16.50
2017-09-30T12:58:34.058Z,14.20
2017-09-30T13:03:36.457Z,15.27
2017-09-30T13:08:39.037Z,15.07
2017-09-30T13:13:41.284Z,15.73
2017-09-30T13:18:43.822Z,17.13
2017-09-30T13:23:46.353Z,15.20
2017-09-30T13:28:48.954Z,24.73
2017-09-30T13:33:51.539Z,22.23
2017-09-30T13:38:54.274Z,13.67
2017-09-30T13:43:56.937Z,9.77
2017-09-30T13:48:59.364Z,14.10
2017-09-30T13:54:02.081Z,11.23
2017-09-30T13:59:04.669Z,11.77
2017-09-30T14:04:07.502Z,14.50
2017-09-30T14:09:09.824Z,13.97
2017-09-30T14:14:12.163Z,16.77
2017-09-30T14:19:14.714Z,13.70
2017-09-30T14:24:18.083Z,14.97
2017-09-30T14:29:20.431Z,12.30
2017-09-30T14:34:23.027Z,13.83
2017-09-30T14:39:25.664Z,16.90
2017-09-30T14:44:28.100Z,15.00
2017-09-30T14:49:30.838Z,14.93
2017-09-30T14:54:33.470Z,18.67
2017-09-30T14:59:36.438Z,13.63
2017-09-30T15:04:39.842Z,13.23
2017-09-30T15:09:42.532Z,14.97
2017-09-30T15:14:45.150Z,14.17
2017-09-30T15:19:47.578Z,12.80
2017-09-30T15:24:49.974Z,13.20
2017-09-30T15:29:52.588Z,16.50
2017-09-30T15:34:55.045Z,15.53
2017-09-30T15:39:57.550Z,15.27
2017-09-30T15:44:59.747Z,15.50
2017-09-30T15:50:02.457Z,15.47
2017-09-30T15:55:05.937Z,16.50
2017-09-30T16:00:08.416Z,16.57
2017-09-30T16:05:14.414Z,15.13
2017-09-30T16:10:17.162Z,10.43
2017-09-30T16:15:19.640Z,9.07
2017-09-30T16:20:22.261Z,6.70
2017-09-30T16:25:26.158Z,7.00
2017-09-30T16:30:32.828Z,12.07
2017-09-30T16:35:41.385Z,3.40
2017-09-30T16:40:44.654Z,2.40
2017-09-30T16:45:48.063Z,2.97
2017-09-30T16:50:50.587Z,2.00
2017-09-30T16:55:53.220Z,2.30
2017-09-30T17:00:55.559Z,2.77
2017-09-30T17:05:57.880Z,2.80
2017-09-30T17:11:01.207Z,2.63
2017-09-30T17:16:03.415Z,2.70
2017-09-30T17:21:06.799Z,3.10
2017-09-30T17:26:10.049Z,2.80
2017-09-30T17:31:12.659Z,2.93
2017-09-30T17:36:15.310Z,2.90
2017-09-30T17:41:17.739Z,2.90
2017-09-30T17:46:27.757Z,3.50
2017-09-30T17:51:34.651Z,3.10
2017-09-30T17:56:42.606Z,3.30
2017-09-30T18:01:48.990Z,3.40
2017-09-30T18:06:51.647Z,3.80
2017-09-30T18:11:55.124Z,3.30
2017-09-30T18:16:58.518Z,2.77
2017-09-30T18:22:01.131Z,3.30
2017-09-30T18:27:03.781Z,4.10
2017-09-30T18:32:06.298Z,4.77
2017-09-30T18:37:09.064Z,2.97
2017-09-30T18:42:11.797Z,3.10
2017-09-30T18:47:14.200Z,4.13
2017-09-30T18:52:16.642Z,3.13
2017-09-30T18:57:19.232Z,3.00
2017-09-30T19:02:21.473Z,3.57
2017-09-30T19:07:23.767Z,3.70
2017-09-30T19:12:32.120Z,5.30
2017-09-30T19:17:36.112Z,4.97
2017-09-30T19:22:44.616Z,5.13
2017-09-30T19:27:47.422Z,7.37
2017-09-30T19:32:49.919Z,8.03
2017-09-30T19:37:53.263Z,8.70
2017-09-30T19:42:55.690Z,6.83
2017-09-30T19:47:58.170Z,6.63
2017-09-30T19:53:00.790Z,5.30
2017-09-30T19:58:03.397Z,5.00
2017-09-30T20:03:06.063Z,4.73
2017-09-30T20:08:08.423Z,3.87
2017-09-30T20:13:10.736Z,4.70
2017-09-30T20:18:14.687Z,5.63
2017-09-30T20:23:17.253Z,5.90
2017-09-30T20:28:19.580Z,5.83
2017-09-30T20:33:22.127Z,5.67
2017-09-30T20:38:24.780Z,5.30
2017-09-30T20:43:27.321Z,5.50
2017-09-30T20:48:30.679Z,6.47
2017-09-30T20:53:32.975Z,6.10
2017-09-30T20:58:35.222Z,7.97
2017-09-30T21:03:38.041Z,6.90
2017-09-30T21:08:40.632Z,7.90
2017-09-30T21:13:44.735Z,8.20
2017-09-30T21:18:48.196Z,8.27
2017-09-30T21:23:50.623Z,7.43
2017-09-30T21:28:52.992Z,8.57
2017-09-30T21:33:55.516Z,9.10
2017-09-30T21:39:05.144Z,10.53
2017-09-30T21:44:07.695Z,12.90
2017-09-30T21:49:10.253Z,14.23
2017-09-30T21:54:12.588Z,14.73
2017-09-30T21:59:15.765Z,16.07
2017-09-30T22:04:19.062Z,16.20
2017-09-30T22:09:21.998Z,15.53
2017-09-30T22:14:24.494Z,14.83
2017-09-30T22:19:27.127Z,14.70
2017-09-30T22:24:30.262Z,16.00
2017-09-30T22:29:32.746Z,14.57
2017-09-30T22:34:35.325Z,14.33
2017-09-30T22:39:37.607Z,13.57
2017-09-30T22:44:39.879Z,13.63
2017-09-30T22:49:42.425Z,14.80
2017-09-30T22:54:44.733Z,13.57
2017-09-30T22:59:47.262Z,13.60
2017-09-30T23:04:49.890Z,13.80
2017-09-30T23:09:52.592Z,15.23
2017-09-30T23:14:55.100Z,15.47
2017-09-30T23:19:58.102Z,15.00
2017-09-30T23:25:00.190Z,15.00
2017-09-30T23:30:02.568Z,15.10
2017-09-30T23:35:05.168Z,14.20
2017-09-30T23:40:07.772Z,14.00
2017-09-30T23:45:10.003Z,14.70
2017-09-30T23:50:12.354Z,14.50
2017-09-30T23:55:15.025Z,14.47
